sensor_id;sensor_type;location;lat;lon;timestamp;pressure;altitude;pressure_sealevel;temperature;humidity
49377;BME280;35253;34.688;33.040;2023-01-28T00:01:14;100647.16;;;17.06;100.00
49377;BME280;35253;34.688;33.040;2023-01-28T00:03:40;100642.63;;;17.06;100.00
49377;BME280;35253;34.688;33.040;2023-01-28T00:06:07;100651.59;;;16.96;100.00
49377;BME280;35253;34.688;33.040;2023-01-28T00:08:33;100647.28;;;16.84;100.00
49377;BME280;35253;34.688;33.040;2023-01-28T00:10:59;100637.56;;;16.72;100.00
49377;BME280;35253;34.688;33.040;2023-01-28T00:13:25;100640.38;;;16.70;100.00
49377;BME280;35253;34.688;33.040;2023-01-28T00:15:54;100649.50;;;16.79;100.00
49377;BME280;35253;34.688;33.040;2023-01-28T00:18:20;100637.94;;;16.88;100.00
49377;BME280;35253;34.688;33.040;2023-01-28T00:20:54;100641.22;;;16.91;100.00
49377;BME280;35253;34.688;33.040;2023-01-28T00:23:19;100639.41;;;16.92;100.00
49377;BME280;35253;34.688;33.040;2023-01-28T00:25:45;100649.13;;;16.83;100.00
49377;BME280;35253;34.688;33.040;2023-01-28T00:28:10;100639.13;;;16.95;100.00
49377;BME280;35253;34.688;33.040;2023-01-28T00:30:36;100649.91;;;16.95;100.00
49377;BME280;35253;34.688;33.040;2023-01-28T00:33:02;100637.41;;;16.94;100.00
49377;BME280;35253;34.688;33.040;2023-01-28T00:35:27;100639.41;;;16.92;100.00
49377;BME280;35253;34.688;33.040;2023-01-28T00:37:54;100637.94;;;16.88;100.00
49377;BME280;35253;34.688;33.040;2023-01-28T00:40:19;100627.19;;;16.88;100.00
49377;BME280;35253;34.688;33.040;2023-01-28T00:42:45;100627.19;;;16.88;100.00
49377;BME280;35253;34.688;33.040;2023-01-28T00:45:10;100633.66;;;16.85;100.00
49377;BME280;35253;34.688;33.040;2023-01-28T00:47:35;100635.31;;;16.77;100.00
49377;BME280;35253;34.688;33.040;2023-01-28T00:50:02;100635.94;;;16.80;100.00
49377;BME280;35253;34.688;33.040;2023-01-28T00:52:27;100630.28;;;16.83;100.00
49377;BME280;35253;34.688;33.040;2023-01-28T00:54:53;100628.56;;;16.82;100.00
49377;BME280;35253;34.688;33.040;2023-01-28T00:57:18;100631.13;;;16.84;100.00
49377;BME280;35253;34.688;33.040;2023-01-28T00:59:44;100640.19;;;16.83;100.00
49377;BME280;35253;34.688;33.040;2023-01-28T01:02:09;100632.09;;;16.83;100.00
49377;BME280;35253;34.688;33.040;2023-01-28T01:04:38;100635.25;;;16.88;100.00
49377;BME280;35253;34.688;33.040;2023-01-28T01:07:04;100633.72;;;16.95;100.00
49377;BME280;35253;34.688;33.040;2023-01-28T01:09:29;100634.97;;;16.91;100.00
49377;BME280;35253;34.688;33.040;2023-01-28T01:11:55;100632.69;;;16.86;100.00
49377;BME280;35253;34.688;33.040;2023-01-28T01:14:20;100631.91;;;16.95;100.00
49377;BME280;35253;34.688;33.040;2023-01-28T01:16:46;100631.50;;;17.00;100.00
49377;BME280;35253;34.688;33.040;2023-01-28T01:19:12;100630.84;;;16.87;100.00
49377;BME280;35253;34.688;33.040;2023-01-28T01:21:37;100624.88;;;16.83;100.00
49377;BME280;35253;34.688;33.040;2023-01-28T01:24:03;100621.41;;;16.72;100.00
49377;BME280;35253;34.688;33.040;2023-01-28T01:26:28;100614.31;;;16.71;100.00
49377;BME280;35253;34.688;33.040;2023-01-28T01:28:54;100622.19;;;16.62;100.00
49377;BME280;35253;34.688;33.040;2023-01-28T01:31:20;100614.81;;;16.64;100.00
49377;BME280;35253;34.688;33.040;2023-01-28T01:33:47;100610.72;;;16.49;100.00
49377;BME280;35253;34.688;33.040;2023-01-28T01:36:13;100613.84;;;16.34;100.00
49377;BME280;35253;34.688;33.040;2023-01-28T01:38:40;100614.81;;;16.33;100.00
49377;BME280;35253;34.688;33.040;2023-01-28T01:41:06;100621.88;;;16.45;100.00
49377;BME280;35253;34.688;33.040;2023-01-28T01:43:45;100613.66;;;16.46;100.00
49377;BME280;35253;34.688;33.040;2023-01-28T01:46:11;100613.75;;;16.56;100.00
49377;BME280;35253;34.688;33.040;2023-01-28T01:48:37;100614.13;;;16.51;100.00
49377;BME280;35253;34.688;33.040;2023-01-28T01:51:06;100612.41;;;16.50;100.00
49377;BME280;35253;34.688;33.040;2023-01-28T01:53:33;100620.44;;;16.41;100.00
49377;BME280;35253;34.688;33.040;2023-01-28T01:56:01;100621.06;;;16.33;100.00
49377;BME280;35253;34.688;33.040;2023-01-28T01:58:28;100613.00;;;16.33;100.00
49377;BME280;35253;34.688;33.040;2023-01-28T02:00:55;100616.41;;;16.35;100.00
49377;BME280;35253;34.688;33.040;2023-01-28T02:03:24;100629.09;;;16.44;100.00
49377;BME280;35253;34.688;33.040;2023-01-28T02:05:52;100626.44;;;16.33;100.00
49377;BME280;35253;34.688;33.040;2023-01-28T02:08:19;100620.56;;;16.39;100.00
49377;BME280;35253;34.688;33.040;2023-01-28T02:10:54;100624.22;;;16.38;100.00
49377;BME280;35253;34.688;33.040;2023-01-28T02:13:21;100623.91;;;16.32;100.00
49377;BME280;35253;34.688;33.040;2023-01-28T02:15:48;100615.75;;;16.11;100.00
49377;BME280;35253;34.688;33.040;2023-01-28T02:18:14;100613.44;;;16.06;100.00
49377;BME280;35253;34.688;33.040;2023-01-28T02:28:21;100600.69;;;15.88;100.00
49377;BME280;35253;34.688;33.040;2023-01-28T02:31:08;100597.00;;;15.89;100.00
49377;BME280;35253;34.688;33.040;2023-01-28T02:36:26;100608.22;;;15.94;100.00
49377;BME280;35253;34.688;33.040;2023-01-28T02:38:52;100608.50;;;15.91;100.00
49377;BME280;35253;34.688;33.040;2023-01-28T02:41:32;100605.53;;;15.94;100.00
49377;BME280;35253;34.688;33.040;2023-01-28T02:44:00;100607.63;;;15.90;100.00
49377;BME280;35253;34.688;33.040;2023-01-28T02:49:11;100602.75;;;15.95;100.00
49377;BME280;35253;34.688;33.040;2023-01-28T02:54:15;100607.38;;;15.93;100.00
49377;BME280;35253;34.688;33.040;2023-01-28T02:56:59;100606.78;;;15.90;100.00
49377;BME280;35253;34.688;33.040;2023-01-28T02:59:34;100601.06;;;15.83;100.00
49377;BME280;35253;34.688;33.040;2023-01-28T03:04:37;100604.63;;;15.84;100.00
49377;BME280;35253;34.688;33.040;2023-01-28T03:07:05;100605.16;;;15.98;100.00
49377;BME280;35253;34.688;33.040;2023-01-28T03:09:33;100608.44;;;16.02;100.00
49377;BME280;35253;34.688;33.040;2023-01-28T03:12:13;100614.50;;;15.83;100.00
49377;BME280;35253;34.688;33.040;2023-01-28T03:15:11;100611.00;;;15.60;100.00
49377;BME280;35253;34.688;33.040;2023-01-28T03:20:43;100605.16;;;15.66;100.00
49377;BME280;35253;34.688;33.040;2023-01-28T03:23:31;100614.66;;;15.70;100.00
49377;BME280;35253;34.688;33.040;2023-01-28T03:26:18;100598.28;;;15.73;100.00
49377;BME280;35253;34.688;33.040;2023-01-28T03:29:05;100593.59;;;15.75;100.00
49377;BME280;35253;34.688;33.040;2023-01-28T03:31:51;100606.81;;;15.67;100.00
49377;BME280;35253;34.688;33.040;2023-01-28T03:34:35;100613.09;;;15.57;100.00
49377;BME280;35253;34.688;33.040;2023-01-28T03:37:20;100605.84;;;15.68;100.00
49377;BME280;35253;34.688;33.040;2023-01-28T03:39:46;100613.47;;;15.52;100.00
49377;BME280;35253;34.688;33.040;2023-01-28T03:42:12;100614.19;;;15.65;100.00
49377;BME280;35253;34.688;33.040;2023-01-28T03:44:38;100617.59;;;15.56;100.00
49377;BME280;35253;34.688;33.040;2023-01-28T03:47:23;100616.50;;;15.70;100.00
49377;BME280;35253;34.688;33.040;2023-01-28T03:49:51;100613.66;;;15.83;100.00
49377;BME280;35253;34.688;33.040;2023-01-28T03:52:17;100627.34;;;15.80;100.00
49377;BME280;35253;34.688;33.040;2023-01-28T03:54:44;100614.91;;;15.56;100.00
49377;BME280;35253;34.688;33.040;2023-01-28T03:57:12;100620.00;;;15.37;100.00
49377;BME280;35253;34.688;33.040;2023-01-28T03:59:38;100615.63;;;15.47;100.00
49377;BME280;35253;34.688;33.040;2023-01-28T04:02:03;100609.03;;;15.62;100.00
49377;BME280;35253;34.688;33.040;2023-01-28T04:04:30;100609.13;;;15.72;100.00
49377;BME280;35253;34.688;33.040;2023-01-28T04:06:56;100600.69;;;15.76;100.00
49377;BME280;35253;34.688;33.040;2023-01-28T04:09:22;100609.25;;;15.82;100.00
49377;BME280;35253;34.688;33.040;2023-01-28T04:11:48;100613.88;;;15.91;100.00
49377;BME280;35253;34.688;33.040;2023-01-28T04:14:15;100618.84;;;15.52;100.00
49377;BME280;35253;34.688;33.040;2023-01-28T04:16:41;100628.09;;;15.59;100.00
49377;BME280;35253;34.688;33.040;2023-01-28T04:19:07;100630.69;;;15.61;100.00
49377;BME280;35253;34.688;33.040;2023-01-28T04:21:32;100625.41;;;15.48;100.00
49377;BME280;35253;34.688;33.040;2023-01-28T04:23:58;100632.28;;;15.52;100.00
49377;BME280;35253;34.688;33.040;2023-01-28T04:26:23;100634.22;;;15.61;100.00
49377;BME280;35253;34.688;33.040;2023-01-28T04:28:49;100637.72;;;15.28;100.00
49377;BME280;35253;34.688;33.040;2023-01-28T04:31:14;100623.56;;;15.38;100.00
49377;BME280;35253;34.688;33.040;2023-01-28T04:33:40;100633.25;;;15.51;100.00
49377;BME280;35253;34.688;33.040;2023-01-28T04:36:05;100650.56;;;15.47;100.00
49377;BME280;35253;34.688;33.040;2023-01-28T04:38:30;100647.25;;;15.44;100.00
49377;BME280;35253;34.688;33.040;2023-01-28T04:40:56;100656.16;;;15.22;100.00
49377;BME280;35253;34.688;33.040;2023-01-28T04:43:21;100660.38;;;14.91;100.00
49377;BME280;35253;34.688;33.040;2023-01-28T04:45:47;100664.16;;;14.88;100.00
49377;BME280;35253;34.688;33.040;2023-01-28T04:48:13;100675.94;;;14.75;100.00
49377;BME280;35253;34.688;33.040;2023-01-28T04:50:39;100679.28;;;14.89;100.00
49377;BME280;35253;34.688;33.040;2023-01-28T04:53:04;100690.19;;;14.64;100.00
49377;BME280;35253;34.688;33.040;2023-01-28T04:55:29;100690.72;;;14.80;100.00
49377;BME280;35253;34.688;33.040;2023-01-28T04:57:55;100689.41;;;14.51;100.00
49377;BME280;35253;34.688;33.040;2023-01-28T05:00:20;100685.91;;;14.62;100.00
49377;BME280;35253;34.688;33.040;2023-01-28T05:02:46;100686.31;;;14.79;100.00
49377;BME280;35253;34.688;33.040;2023-01-28T05:05:11;100689.56;;;14.96;100.00
49377;BME280;35253;34.688;33.040;2023-01-28T05:07:37;100688.81;;;14.94;100.00
49377;BME280;35253;34.688;33.040;2023-01-28T05:10:02;100688.22;;;15.01;100.00
49377;BME280;35253;34.688;33.040;2023-01-28T05:12:28;100691.41;;;15.06;100.00
49377;BME280;35253;34.688;33.040;2023-01-28T05:14:54;100692.88;;;15.10;100.00
49377;BME280;35253;34.688;33.040;2023-01-28T05:17:20;100693.28;;;15.17;100.00
49377;BME280;35253;34.688;33.040;2023-01-28T05:19:45;100696.56;;;15.31;100.00
49377;BME280;35253;34.688;33.040;2023-01-28T05:22:10;100701.84;;;15.22;100.00
49377;BME280;35253;34.688;33.040;2023-01-28T05:24:36;100709.38;;;15.17;100.00
49377;BME280;35253;34.688;33.040;2023-01-28T05:27:01;100705.44;;;15.10;100.00
49377;BME280;35253;34.688;33.040;2023-01-28T05:29:27;100702.28;;;15.16;100.00
49377;BME280;35253;34.688;33.040;2023-01-28T05:31:53;100701.06;;;15.09;100.00
49377;BME280;35253;34.688;33.040;2023-01-28T05:34:19;100706.34;;;15.21;100.00
49377;BME280;35253;34.688;33.040;2023-01-28T05:36:45;100714.03;;;15.26;100.00
49377;BME280;35253;34.688;33.040;2023-01-28T05:39:11;100711.09;;;15.18;100.00
49377;BME280;35253;34.688;33.040;2023-01-28T05:41:36;100723.56;;;15.30;100.00
49377;BME280;35253;34.688;33.040;2023-01-28T05:44:02;100722.47;;;15.32;100.00
49377;BME280;35253;34.688;33.040;2023-01-28T05:46:27;100719.66;;;15.34;100.00
49377;BME280;35253;34.688;33.040;2023-01-28T05:48:53;100732.00;;;15.37;100.00
49377;BME280;35253;34.688;33.040;2023-01-28T05:51:18;100722.00;;;15.50;100.00
49377;BME280;35253;34.688;33.040;2023-01-28T05:53:44;100724.00;;;15.59;100.00
49377;BME280;35253;34.688;33.040;2023-01-28T05:56:09;100733.78;;;15.60;100.00
49377;BME280;35253;34.688;33.040;2023-01-28T05:58:35;100737.09;;;15.74;100.00
49377;BME280;35253;34.688;33.040;2023-01-28T06:01:00;100745.66;;;15.80;100.00
49377;BME280;35253;34.688;33.040;2023-01-28T06:03:26;100742.94;;;15.91;100.00
49377;BME280;35253;34.688;33.040;2023-01-28T06:05:51;100741.38;;;15.88;100.00
49377;BME280;35253;34.688;33.040;2023-01-28T06:08:16;100744.63;;;16.03;100.00
49377;BME280;35253;34.688;33.040;2023-01-28T06:10:42;100743.41;;;16.07;100.00
49377;BME280;35253;34.688;33.040;2023-01-28T06:13:07;100744.38;;;16.17;100.00
49377;BME280;35253;34.688;33.040;2023-01-28T06:15:33;100754.41;;;16.26;100.00
49377;BME280;35253;34.688;33.040;2023-01-28T06:17:58;100754.72;;;16.33;100.00
49377;BME280;35253;34.688;33.040;2023-01-28T06:20:24;100753.13;;;16.41;100.00
49377;BME280;35253;34.688;33.040;2023-01-28T06:22:50;100759.72;;;16.48;100.00
49377;BME280;35253;34.688;33.040;2023-01-28T06:25:16;100763.75;;;16.54;100.00
49377;BME280;35253;34.688;33.040;2023-01-28T06:27:41;100765.09;;;16.59;100.00
49377;BME280;35253;34.688;33.040;2023-01-28T06:30:07;100761.53;;;16.70;100.00
49377;BME280;35253;34.688;33.040;2023-01-28T06:32:32;100775.84;;;16.71;100.00
49377;BME280;35253;34.688;33.040;2023-01-28T06:34:58;100774.94;;;16.81;100.00
49377;BME280;35253;34.688;33.040;2023-01-28T06:37:23;100786.78;;;16.90;100.00
49377;BME280;35253;34.688;33.040;2023-01-28T06:39:49;100790.69;;;16.97;100.00
49377;BME280;35253;34.688;33.040;2023-01-28T06:42:14;100788.19;;;17.05;100.00
49377;BME280;35253;34.688;33.040;2023-01-28T06:44:39;100798.91;;;17.16;100.00
49377;BME280;35253;34.688;33.040;2023-01-28T06:47:05;100798.13;;;17.25;100.00
49377;BME280;35253;34.688;33.040;2023-01-28T06:49:31;100801.28;;;17.30;100.00
49377;BME280;35253;34.688;33.040;2023-01-28T06:51:56;100798.56;;;17.41;100.00
49377;BME280;35253;34.688;33.040;2023-01-28T06:54:22;100798.88;;;17.48;100.00
49377;BME280;35253;34.688;33.040;2023-01-28T06:56:47;100798.19;;;17.55;100.00
49377;BME280;35253;34.688;33.040;2023-01-28T06:59:14;100800.41;;;17.62;100.00
49377;BME280;35253;34.688;33.040;2023-01-28T07:01:39;100811.19;;;17.62;100.00
49377;BME280;35253;34.688;33.040;2023-01-28T07:04:05;100801.38;;;17.61;100.00
49377;BME280;35253;34.688;33.040;2023-01-28T07:06:31;100802.50;;;17.79;100.00
49377;BME280;35253;34.688;33.040;2023-01-28T07:08:56;100802.66;;;17.87;100.00
49377;BME280;35253;34.688;33.040;2023-01-28T07:11:22;100812.47;;;17.88;100.00
49377;BME280;35253;34.688;33.040;2023-01-28T07:13:47;100804.97;;;17.91;100.00
49377;BME280;35253;34.688;33.040;2023-01-28T07:16:13;100808.00;;;17.98;100.00
49377;BME280;35253;34.688;33.040;2023-01-28T07:18:38;100806.69;;;17.92;100.00
49377;BME280;35253;34.688;33.040;2023-01-28T07:21:04;100813.84;;;18.03;100.00
49377;BME280;35253;34.688;33.040;2023-01-28T07:23:29;100824.38;;;18.06;100.00
49377;BME280;35253;34.688;33.040;2023-01-28T07:25:54;100819.94;;;18.05;100.00
49377;BME280;35253;34.688;33.040;2023-01-28T07:28:24;100823.63;;;18.04;100.00
49377;BME280;35253;34.688;33.040;2023-01-28T07:30:51;100817.19;;;18.16;100.00
49377;BME280;35253;34.688;33.040;2023-01-28T07:33:17;100820.44;;;18.20;100.00
49377;BME280;35253;34.688;33.040;2023-01-28T07:35:42;100816.59;;;18.22;100.00
49377;BME280;35253;34.688;33.040;2023-01-28T07:38:08;100818.84;;;18.17;100.00
49377;BME280;35253;34.688;33.040;2023-01-28T07:40:33;100823.41;;;18.17;100.00
49377;BME280;35253;34.688;33.040;2023-01-28T07:42:59;100820.50;;;18.29;100.00
49377;BME280;35253;34.688;33.040;2023-01-28T07:45:25;100811.81;;;18.35;100.00
49377;BME280;35253;34.688;33.040;2023-01-28T07:47:57;100819.22;;;18.43;100.00
49377;BME280;35253;34.688;33.040;2023-01-28T07:50:23;100822.53;;;18.46;100.00
49377;BME280;35253;34.688;33.040;2023-01-28T07:52:49;100818.41;;;18.42;100.00
49377;BME280;35253;34.688;33.040;2023-01-28T07:55:15;100819.66;;;18.38;100.00
49377;BME280;35253;34.688;33.040;2023-01-28T07:57:54;100815.31;;;18.57;100.00
49377;BME280;35253;34.688;33.040;2023-01-28T08:00:20;100816.84;;;18.50;100.00
49377;BME280;35253;34.688;33.040;2023-01-28T08:02:46;100817.34;;;18.55;100.00
49377;BME280;35253;34.688;33.040;2023-01-28T08:05:15;100820.41;;;18.50;100.00
49377;BME280;35253;34.688;33.040;2023-01-28T08:07:41;100815.28;;;18.47;100.00
49377;BME280;35253;34.688;33.040;2023-01-28T08:10:07;100812.78;;;18.55;100.00
49377;BME280;35253;34.688;33.040;2023-01-28T08:12:33;100802.13;;;18.63;100.00
49377;BME280;35253;34.688;33.040;2023-01-28T08:14:58;100813.66;;;18.75;100.00
49377;BME280;35253;34.688;33.040;2023-01-28T08:17:24;100801.72;;;18.68;100.00
49377;BME280;35253;34.688;33.040;2023-01-28T08:19:49;100806.53;;;18.74;100.00
49377;BME280;35253;34.688;33.040;2023-01-28T08:22:15;100798.72;;;18.71;100.00
49377;BME280;35253;34.688;33.040;2023-01-28T08:24:40;100795.47;;;18.77;100.00
49377;BME280;35253;34.688;33.040;2023-01-28T08:27:06;100790.84;;;18.48;100.00
49377;BME280;35253;34.688;33.040;2023-01-28T08:29:31;100787.78;;;18.63;100.00
49377;BME280;35253;34.688;33.040;2023-01-28T08:31:57;100790.91;;;18.58;100.00
49377;BME280;35253;34.688;33.040;2023-01-28T08:34:23;100793.28;;;18.52;100.00
49377;BME280;35253;34.688;33.040;2023-01-28T08:36:48;100782.22;;;18.55;100.00
49377;BME280;35253;34.688;33.040;2023-01-28T08:39:13;100782.94;;;18.66;100.00
49377;BME280;35253;34.688;33.040;2023-01-28T08:41:39;100789.75;;;18.61;100.00
49377;BME280;35253;34.688;33.040;2023-01-28T08:44:04;100792.44;;;18.61;100.00
49377;BME280;35253;34.688;33.040;2023-01-28T08:46:30;100784.94;;;18.74;100.00
49377;BME280;35253;34.688;33.040;2023-01-28T08:48:55;100784.34;;;18.61;100.00
49377;BME280;35253;34.688;33.040;2023-01-28T08:51:21;100781.00;;;18.78;100.00
49377;BME280;35253;34.688;33.040;2023-01-28T08:53:46;100788.06;;;18.79;100.00
49377;BME280;35253;34.688;33.040;2023-01-28T08:56:12;100776.44;;;18.69;100.00
49377;BME280;35253;34.688;33.040;2023-01-28T08:58:38;100772.16;;;18.76;100.00
49377;BME280;35253;34.688;33.040;2023-01-28T09:01:05;100772.44;;;18.73;100.00
49377;BME280;35253;34.688;33.040;2023-01-28T09:03:31;100771.03;;;18.69;100.00
49377;BME280;35253;34.688;33.040;2023-01-28T09:06:00;100767.50;;;18.78;100.00
49377;BME280;35253;34.688;33.040;2023-01-28T09:08:26;100770.75;;;18.91;100.00
49377;BME280;35253;34.688;33.040;2023-01-28T09:10:58;100764.63;;;18.89;100.00
49377;BME280;35253;34.688;33.040;2023-01-28T09:13:23;100768.75;;;19.12;100.00
49377;BME280;35253;34.688;33.040;2023-01-28T09:15:49;100752.97;;;18.98;100.00
49377;BME280;35253;34.688;33.040;2023-01-28T09:18:16;100755.69;;;19.17;100.00
49377;BME280;35253;34.688;33.040;2023-01-28T09:20:42;100751.53;;;19.13;100.00
49377;BME280;35253;34.688;33.040;2023-01-28T09:23:08;100742.56;;;19.22;100.00
49377;BME280;35253;34.688;33.040;2023-01-28T09:25:33;100744.25;;;19.43;100.00
49377;BME280;35253;34.688;33.040;2023-01-28T09:28:00;100740.16;;;19.48;100.00
49377;BME280;35253;34.688;33.040;2023-01-28T09:30:26;100738.13;;;19.60;100.00
49377;BME280;35253;34.688;33.040;2023-01-28T09:32:52;100730.25;;;19.66;100.00
49377;BME280;35253;34.688;33.040;2023-01-28T09:35:18;100737.66;;;19.74;100.00
49377;BME280;35253;34.688;33.040;2023-01-28T09:37:43;100728.28;;;19.40;100.00
49377;BME280;35253;34.688;33.040;2023-01-28T09:40:16;100733.28;;;19.54;100.00
49377;BME280;35253;34.688;33.040;2023-01-28T09:45:24;100729.75;;;19.90;100.00
49377;BME280;35253;34.688;33.040;2023-01-28T09:47:57;100725.13;;;19.63;100.00
49377;BME280;35253;34.688;33.040;2023-01-28T09:52:56;100725.13;;;19.63;100.00
49377;BME280;35253;34.688;33.040;2023-01-28T09:55:45;100722.91;;;19.49;100.00
49377;BME280;35253;34.688;33.040;2023-01-28T09:58:12;100723.97;;;19.66;100.00
49377;BME280;35253;34.688;33.040;2023-01-28T10:00:55;100726.09;;;19.72;100.00
49377;BME280;35253;34.688;33.040;2023-01-28T10:03:27;100718.28;;;19.69;100.00
49377;BME280;35253;34.688;33.040;2023-01-28T10:08:42;100722.13;;;20.03;100.00
49377;BME280;35253;34.688;33.040;2023-01-28T10:16:33;100710.50;;;19.93;100.00
49377;BME280;35253;34.688;33.040;2023-01-28T10:19:04;100713.22;;;19.84;100.00
49377;BME280;35253;34.688;33.040;2023-01-28T10:24:00;100702.19;;;20.04;100.00
49377;BME280;35253;34.688;33.040;2023-01-28T10:26:38;100695.16;;;20.11;100.00
49377;BME280;35253;34.688;33.040;2023-01-28T10:29:12;100697.66;;;20.22;100.00
49377;BME280;35253;34.688;33.040;2023-01-28T10:31:40;100690.13;;;20.16;100.00
49377;BME280;35253;34.688;33.040;2023-01-28T10:34:09;100682.78;;;20.09;100.00
49377;BME280;35253;34.688;33.040;2023-01-28T10:36:34;100679.31;;;20.16;100.00
49377;BME280;35253;34.688;33.040;2023-01-28T10:39:00;100672.19;;;20.15;100.00
49377;BME280;35253;34.688;33.040;2023-01-28T10:41:25;100679.53;;;20.23;100.00
49377;BME280;35253;34.688;33.040;2023-01-28T10:43:51;100669.00;;;20.30;100.00
49377;BME280;35253;34.688;33.040;2023-01-28T10:46:21;100675.84;;;20.24;100.00
49377;BME280;35253;34.688;33.040;2023-01-28T10:48:52;100666.63;;;20.17;100.00
49377;BME280;35253;34.688;33.040;2023-01-28T10:51:28;100660.56;;;20.05;100.00
49377;BME280;35253;34.688;33.040;2023-01-28T10:53:54;100668.56;;;20.24;100.00
49377;BME280;35253;34.688;33.040;2023-01-28T10:56:24;100655.75;;;20.27;100.00
49377;BME280;35253;34.688;33.040;2023-01-28T10:59:04;100646.56;;;20.55;100.00
49377;BME280;35253;34.688;33.040;2023-01-28T11:01:44;100652.16;;;20.36;100.00
49377;BME280;35253;34.688;33.040;2023-01-28T11:04:29;100650.44;;;20.70;100.00
49377;BME280;35253;34.688;33.040;2023-01-28T11:06:56;100652.00;;;21.16;100.00
49377;BME280;35253;34.688;33.040;2023-01-28T11:09:23;100659.78;;;21.37;100.00
49377;BME280;35253;34.688;33.040;2023-01-28T11:11:49;100644.63;;;21.08;100.00
49377;BME280;35253;34.688;33.040;2023-01-28T11:14:21;100650.66;;;21.46;100.00
49377;BME280;35253;34.688;33.040;2023-01-28T11:16:47;100641.69;;;21.87;100.00
49377;BME280;35253;34.688;33.040;2023-01-28T11:19:15;100635.34;;;22.21;100.00
49377;BME280;35253;34.688;33.040;2023-01-28T11:21:46;100633.41;;;22.63;100.00
49377;BME280;35253;34.688;33.040;2023-01-28T11:24:13;100649.66;;;22.39;100.00
49377;BME280;35253;34.688;33.040;2023-01-28T11:26:43;100640.69;;;22.46;100.00
49377;BME280;35253;34.688;33.040;2023-01-28T11:31:53;100635.22;;;22.38;100.00
49377;BME280;35253;34.688;33.040;2023-01-28T11:34:19;100634.38;;;22.38;100.00
49377;BME280;35253;34.688;33.040;2023-01-28T11:39:34;100635.28;;;22.79;54.35
49377;BME280;35253;34.688;33.040;2023-01-28T11:42:18;100625.78;;;22.75;46.87
49377;BME280;35253;34.688;33.040;2023-01-28T11:44:44;100630.34;;;23.07;45.61
49377;BME280;35253;34.688;33.040;2023-01-28T11:47:15;100629.13;;;23.80;45.88
49377;BME280;35253;34.688;33.040;2023-01-28T11:49:48;100654.81;;;23.15;42.20
49377;BME280;35253;34.688;33.040;2023-01-28T11:52:25;100639.81;;;23.51;41.46
49377;BME280;35253;34.688;33.040;2023-01-28T11:57:22;100636.13;;;24.06;40.58
49377;BME280;35253;34.688;33.040;2023-01-28T12:02:44;100639.00;;;23.02;40.52
49377;BME280;35253;34.688;33.040;2023-01-28T12:05:35;100631.16;;;23.87;40.05
49377;BME280;35253;34.688;33.040;2023-01-28T12:08:11;100630.59;;;23.60;41.72
49377;BME280;35253;34.688;33.040;2023-01-28T12:21:03;100649.34;;;23.23;41.30
49377;BME280;35253;34.688;33.040;2023-01-28T12:26:14;100658.69;;;23.45;41.63
49377;BME280;35253;34.688;33.040;2023-01-28T12:41:47;100652.59;;;23.18;43.07
49377;BME280;35253;34.688;33.040;2023-01-28T12:44:20;100662.28;;;22.97;43.45
49377;BME280;35253;34.688;33.040;2023-01-28T12:46:48;100674.03;;;22.97;42.38
49377;BME280;35253;34.688;33.040;2023-01-28T12:49:30;100670.13;;;23.08;42.69
49377;BME280;35253;34.688;33.040;2023-01-28T12:52:01;100676.06;;;23.19;43.43
49377;BME280;35253;34.688;33.040;2023-01-28T12:54:34;100673.81;;;23.23;40.52
49377;BME280;35253;34.688;33.040;2023-01-28T12:57:00;100676.53;;;22.58;42.88
49377;BME280;35253;34.688;33.040;2023-01-28T12:59:28;100677.22;;;22.68;42.62
49377;BME280;35253;34.688;33.040;2023-01-28T13:02:11;100679.59;;;22.55;44.36
49377;BME280;35253;34.688;33.040;2023-01-28T13:04:58;100688.69;;;22.30;44.75
49377;BME280;35253;34.688;33.040;2023-01-28T13:07:27;100694.13;;;22.30;45.56
49377;BME280;35253;34.688;33.040;2023-01-28T13:10:21;100682.56;;;22.20;46.61
49377;BME280;35253;34.688;33.040;2023-01-28T13:12:42;100687.38;;;22.50;47.17
49377;BME280;35253;34.688;33.040;2023-01-28T13:15:12;100702.34;;;22.46;47.76
49377;BME280;35253;34.688;33.040;2023-01-28T13:17:39;100695.31;;;22.35;50.17
49377;BME280;35253;34.688;33.040;2023-01-28T13:20:28;100695.56;;;22.58;50.05
49377;BME280;35253;34.688;33.040;2023-01-28T13:23:02;100696.91;;;21.96;52.82
49377;BME280;35253;34.688;33.040;2023-01-28T13:25:28;100696.19;;;22.36;52.70
49377;BME280;35253;34.688;33.040;2023-01-28T13:28:00;100707.56;;;22.39;52.89
49377;BME280;35253;34.688;33.040;2023-01-28T13:30:27;100690.66;;;21.78;54.38
49377;BME280;35253;34.688;33.040;2023-01-28T13:35:37;100706.06;;;22.45;54.43
49377;BME280;35253;34.688;33.040;2023-01-28T13:38:21;100701.19;;;22.07;53.32
49377;BME280;35253;34.688;33.040;2023-01-28T13:40:52;100717.34;;;21.90;52.18
49377;BME280;35253;34.688;33.040;2023-01-28T13:43:37;100727.81;;;21.77;53.14
49377;BME280;35253;34.688;33.040;2023-01-28T13:46:05;100714.13;;;21.53;54.67
49377;BME280;35253;34.688;33.040;2023-01-28T13:48:44;100721.78;;;21.57;54.30
49377;BME280;35253;34.688;33.040;2023-01-28T13:51:18;100728.66;;;22.03;54.17
49377;BME280;35253;34.688;33.040;2023-01-28T13:53:47;100721.84;;;21.74;56.62